createdAt,value
2018-11-28T00:00:20.412Z,84.85
2018-11-28T00:02:49.810Z,85.27
2018-11-28T00:05:17.938Z,85.25
2018-11-28T00:07:46.060Z,85.71
2018-11-28T00:10:14.807Z,84.90
2018-11-28T00:12:42.929Z,84.06
2018-11-28T00:15:13.026Z,85.10
2018-11-28T00:17:41.111Z,86.14
2018-11-28T00:20:13.406Z,86.16
2018-11-28T00:22:41.659Z,84.69
2018-11-28T00:25:10.607Z,86.00
2018-11-28T00:27:38.755Z,85.64
2018-11-28T00:30:11.764Z,84.58
2018-11-28T00:32:39.872Z,85.65
2018-11-28T00:35:09.625Z,84.74
2018-11-28T00:37:37.757Z,85.40
2018-11-28T00:40:06.903Z,85.28
2018-11-28T00:42:35.004Z,85.49
2018-11-28T00:45:03.100Z,86.34
2018-11-28T00:47:31.192Z,86.86
2018-11-28T00:49:59.285Z,87.07
2018-11-28T00:52:27.390Z,86.84
2018-11-28T00:54:55.527Z,87.28
2018-11-28T00:57:23.617Z,87.93
2018-11-28T00:59:51.715Z,87.98
2018-11-28T01:02:19.827Z,87.90
2018-11-28T01:04:47.950Z,88.10
2018-11-28T01:07:16.075Z,87.36
2018-11-28T01:09:44.168Z,87.32
2018-11-28T01:12:12.257Z,87.80
2018-11-28T01:14:40.328Z,88.46
2018-11-28T01:17:08.426Z,88.06
2018-11-28T01:19:36.514Z,88.45
2018-11-28T01:22:04.685Z,89.07
2018-11-28T01:24:32.827Z,88.74
2018-11-28T01:27:01.010Z,89.34
2018-11-28T01:29:29.116Z,89.00
2018-11-28T01:31:57.191Z,89.86
2018-11-28T01:34:25.264Z,89.61
2018-11-28T01:36:53.339Z,90.27
2018-11-28T01:39:21.444Z,90.23
2018-11-28T01:41:49.539Z,90.43
2018-11-28T01:44:17.619Z,91.07
2018-11-28T01:46:45.732Z,91.16
2018-11-28T01:49:13.851Z,91.80
2018-11-28T01:51:41.986Z,91.61
2018-11-28T01:54:10.079Z,91.76
2018-11-28T01:56:38.746Z,91.88
2018-11-28T01:59:06.822Z,91.72
2018-11-28T02:01:34.881Z,92.38
2018-11-28T02:04:02.934Z,92.50
2018-11-28T02:06:30.989Z,93.28
2018-11-28T02:08:59.070Z,92.49
2018-11-28T02:11:27.122Z,92.91
2018-11-28T02:13:55.194Z,92.69
2018-11-28T02:16:23.255Z,93.51
2018-11-28T02:18:51.387Z,93.18
2018-11-28T02:21:19.415Z,93.29
2018-11-28T02:23:47.475Z,93.43
2018-11-28T02:26:15.542Z,93.75
2018-11-28T02:28:43.622Z,93.65
2018-11-28T02:31:11.690Z,93.92
2018-11-28T02:33:40.606Z,94.47
2018-11-28T02:36:15.293Z,94.55
2018-11-28T02:38:43.354Z,94.77
2018-11-28T02:41:11.443Z,94.98
2018-11-28T02:48:36.931Z,94.99
2018-11-28T02:51:05.850Z,94.99
2018-11-28T02:53:33.911Z,94.85
2018-11-28T02:56:01.992Z,95.11
2018-11-28T02:58:30.075Z,94.92
2018-11-28T03:00:58.157Z,95.03
2018-11-28T03:06:06.546Z,94.29
2018-11-28T03:08:34.640Z,94.39
2018-11-28T03:11:02.725Z,94.37
2018-11-28T03:13:30.800Z,93.70
2018-11-28T03:16:00.450Z,93.60
2018-11-28T03:18:28.827Z,94.39
2018-11-28T03:20:56.901Z,93.95
2018-11-28T03:23:24.961Z,93.90
2018-11-28T03:25:52.995Z,93.64
2018-11-28T03:28:21.069Z,93.62
2018-11-28T03:30:49.143Z,93.83
2018-11-28T03:33:17.195Z,93.92
2018-11-28T03:35:45.237Z,93.81
2018-11-28T03:38:13.309Z,94.04
2018-11-28T03:40:41.365Z,93.77
2018-11-28T03:43:09.429Z,94.31
2018-11-28T03:45:37.691Z,93.26
2018-11-28T03:48:05.894Z,94.12
2018-11-28T03:50:34.002Z,93.62
2018-11-28T03:53:02.078Z,93.79
2018-11-28T03:55:30.141Z,93.16
2018-11-28T03:57:58.407Z,92.77
2018-11-28T04:00:26.490Z,92.76
2018-11-28T04:02:54.574Z,92.34
2018-11-28T04:05:22.634Z,92.56
2018-11-28T04:07:50.694Z,92.82
2018-11-28T04:10:18.770Z,92.12
2018-11-28T04:12:46.862Z,92.32
2018-11-28T04:15:16.244Z,92.44
2018-11-28T04:17:44.291Z,92.43
2018-11-28T04:20:13.497Z,92.24
2018-11-28T04:22:41.568Z,92.34
2018-11-28T04:25:10.394Z,92.08
2018-11-28T04:27:38.485Z,91.11
2018-11-28T04:30:10.739Z,91.11
2018-11-28T04:32:38.808Z,91.58
2018-11-28T04:35:08.630Z,91.13
2018-11-28T04:37:36.704Z,91.51
2018-11-28T04:40:08.035Z,91.27
2018-11-28T04:42:36.223Z,91.71
2018-11-28T04:45:04.403Z,91.57
2018-11-28T04:47:32.463Z,90.80
2018-11-28T04:50:00.530Z,91.41
2018-11-28T04:52:28.606Z,91.94
2018-11-28T04:54:56.653Z,91.89
2018-11-28T04:57:24.756Z,91.34
2018-11-28T04:59:52.810Z,91.73
2018-11-28T05:02:20.951Z,91.77
2018-11-28T05:04:49.055Z,91.68
2018-11-28T05:07:31.951Z,91.53
2018-11-28T05:10:00.075Z,91.65
2018-11-28T05:12:28.130Z,91.54
2018-11-28T05:14:56.206Z,91.58
2018-11-28T05:17:25.055Z,91.77
2018-11-28T05:19:53.153Z,91.79
2018-11-28T05:22:21.258Z,91.67
2018-11-28T05:24:49.314Z,91.94
2018-11-28T05:27:17.382Z,91.57
2018-11-28T05:29:45.458Z,91.64
2018-11-28T05:32:13.497Z,91.45
2018-11-28T05:34:41.610Z,91.21
2018-11-28T05:37:09.718Z,91.00
2018-11-28T05:39:37.786Z,91.12
2018-11-28T05:42:05.930Z,91.03
2018-11-28T05:44:34.241Z,91.59
2018-11-28T05:47:02.414Z,91.00
2018-11-28T05:49:30.577Z,90.73
2018-11-28T05:51:58.723Z,90.02
2018-11-28T05:54:26.810Z,90.78
2018-11-28T05:56:54.898Z,90.97
2018-11-28T05:59:27.365Z,90.81
2018-11-28T06:01:51.101Z,90.85
2018-11-28T06:04:19.191Z,90.65
2018-11-28T06:06:47.281Z,90.31
2018-11-28T06:09:15.366Z,89.75
2018-11-28T06:11:43.449Z,90.18
2018-11-28T06:14:11.510Z,90.07
2018-11-28T06:16:39.570Z,89.78
2018-11-28T06:19:07.842Z,89.12
2018-11-28T06:21:35.928Z,89.27
2018-11-28T06:24:03.957Z,88.98
2018-11-28T06:26:32.042Z,89.00
2018-11-28T06:29:00.102Z,88.93
2018-11-28T06:31:28.165Z,88.42
2018-11-28T06:33:56.229Z,88.57
2018-11-28T06:36:24.312Z,87.97
2018-11-28T06:38:52.374Z,88.49
2018-11-28T06:41:20.461Z,88.86
2018-11-28T06:43:48.541Z,88.90
2018-11-28T06:46:16.621Z,88.42
2018-11-28T06:48:44.697Z,88.81
2018-11-28T06:51:12.777Z,88.89
2018-11-28T06:53:41.229Z,88.59
2018-11-28T06:56:09.293Z,88.74
2018-11-28T06:58:37.328Z,88.48
2018-11-28T07:01:06.137Z,88.22
2018-11-28T07:03:34.218Z,88.08
2018-11-28T07:06:02.326Z,87.73
2018-11-28T07:08:30.494Z,87.87
2018-11-28T07:10:58.572Z,87.74
2018-11-28T07:13:26.621Z,87.42
2018-11-28T07:15:54.693Z,87.76
2018-11-28T07:18:34.121Z,87.48
2018-11-28T07:21:02.194Z,87.27
2018-11-28T07:23:30.435Z,87.40
2018-11-28T07:25:58.498Z,87.70
2018-11-28T07:28:26.557Z,87.47
2018-11-28T07:30:54.613Z,87.95
2018-11-28T07:33:22.673Z,87.17
2018-11-28T07:35:50.792Z,87.21
2018-11-28T07:38:18.886Z,87.76
2018-11-28T07:40:46.936Z,87.39
2018-11-28T07:43:15.307Z,87.92
2018-11-28T07:45:47.990Z,87.12
2018-11-28T07:48:16.086Z,87.35
2018-11-28T07:50:44.219Z,86.92
2018-11-28T07:53:12.531Z,87.04
2018-11-28T07:55:40.623Z,86.54
2018-11-28T07:58:08.690Z,86.49
2018-11-28T08:00:37.281Z,86.87
2018-11-28T08:03:07.118Z,86.15
2018-11-28T08:05:36.106Z,86.52
2018-11-28T08:08:04.163Z,86.41
2018-11-28T08:10:32.258Z,86.37
2018-11-28T08:13:00.457Z,85.66
2018-11-28T08:15:28.517Z,85.55
2018-11-28T08:17:56.598Z,85.45
2018-11-28T08:20:24.671Z,84.61
2018-11-28T08:22:52.750Z,85.05
2018-11-28T08:25:20.810Z,85.11
2018-11-28T08:27:49.930Z,84.52
2018-11-28T08:30:21.983Z,84.54
2018-11-28T08:32:50.116Z,83.83
2018-11-28T08:35:18.249Z,83.81
2018-11-28T08:37:46.346Z,83.43
2018-11-28T08:40:15.502Z,83.45
2018-11-28T08:42:43.714Z,83.19
2018-11-28T08:45:14.055Z,82.90
2018-11-28T08:47:42.138Z,83.11
2018-11-28T08:50:14.599Z,83.13
2018-11-28T08:52:42.670Z,82.48
2018-11-28T08:55:12.065Z,82.69
2018-11-28T08:57:40.118Z,82.22
2018-11-28T09:00:12.015Z,81.60
2018-11-28T09:02:40.081Z,81.85
2018-11-28T09:05:09.009Z,81.94
2018-11-28T09:07:37.090Z,81.35
2018-11-28T09:10:07.341Z,81.16
2018-11-28T09:12:35.450Z,81.44
2018-11-28T09:15:03.533Z,81.62
2018-11-28T09:17:31.582Z,80.94
2018-11-28T09:19:59.642Z,80.77
2018-11-28T09:22:27.749Z,80.93
2018-11-28T09:24:55.830Z,80.68
2018-11-28T09:27:23.873Z,80.24
2018-11-28T09:29:51.910Z,80.39
2018-11-28T09:32:19.961Z,80.46
2018-11-28T09:34:48.037Z,79.98
2018-11-28T09:37:16.121Z,80.03
2018-11-28T09:39:44.195Z,80.23
2018-11-28T09:42:12.305Z,80.97
2018-11-28T09:44:40.357Z,80.19
2018-11-28T09:47:08.446Z,80.70
2018-11-28T09:49:36.495Z,80.60
2018-11-28T09:52:04.846Z,80.79
2018-11-28T09:54:32.902Z,80.86
2018-11-28T09:57:00.946Z,80.73
2018-11-28T09:59:29.099Z,81.34
2018-11-28T10:01:57.261Z,81.63
2018-11-28T10:04:25.339Z,81.49
2018-11-28T10:06:53.380Z,82.01
2018-11-28T10:09:21.458Z,81.69
2018-11-28T10:11:49.513Z,81.60
2018-11-28T10:14:17.601Z,82.03
2018-11-28T10:16:46.227Z,80.98
2018-11-28T10:19:13.754Z,81.51
2018-11-28T10:21:41.793Z,81.90
2018-11-28T10:24:09.871Z,81.63
2018-11-28T10:26:37.913Z,81.27
2018-11-28T10:29:06.317Z,82.12
2018-11-28T10:31:34.474Z,81.28
2018-11-28T10:34:02.538Z,81.14
2018-11-28T10:36:30.596Z,81.21
2018-11-28T10:38:58.681Z,81.53
2018-11-28T10:41:26.795Z,81.97
2018-11-28T10:43:54.878Z,81.62
2018-11-28T10:46:22.951Z,81.35
2018-11-28T10:48:51.061Z,81.62
2018-11-28T10:51:19.114Z,80.93
2018-11-28T10:53:47.169Z,81.21
2018-11-28T10:56:15.242Z,81.55
2018-11-28T10:58:43.371Z,81.76
2018-11-28T11:01:16.731Z,81.98
2018-11-28T11:03:50.066Z,81.91
2018-11-28T11:06:23.434Z,81.94
2018-11-28T11:08:56.947Z,82.24
2018-11-28T11:11:25.994Z,81.71
2018-11-28T11:13:59.573Z,81.75
2018-11-28T11:16:29.659Z,82.20
2018-11-28T11:18:58.401Z,82.02
2018-11-28T11:21:27.006Z,81.70
2018-11-28T11:23:55.072Z,82.05
2018-11-28T11:26:23.179Z,82.70
2018-11-28T11:28:51.309Z,82.61
2018-11-28T11:31:19.362Z,81.93
2018-11-28T11:33:47.457Z,82.47
2018-11-28T11:36:15.558Z,82.19
2018-11-28T11:38:43.636Z,81.56
2018-11-28T11:41:11.751Z,82.05
2018-11-28T11:43:40.580Z,82.06
2018-11-28T11:46:08.642Z,81.27
2018-11-28T11:48:36.754Z,81.74
2018-11-28T11:51:04.869Z,82.37
2018-11-28T11:53:32.982Z,81.96
2018-11-28T11:56:01.130Z,81.68
2018-11-28T11:58:29.201Z,82.22
2018-11-28T12:00:57.250Z,82.41
2018-11-28T12:03:25.302Z,81.89
2018-11-28T12:05:56.718Z,82.47
2018-11-28T12:08:25.803Z,82.68
2018-11-28T12:10:53.894Z,82.17
2018-11-28T12:13:21.983Z,82.85
2018-11-28T12:15:50.942Z,82.66
2018-11-28T12:18:19.028Z,83.55
2018-11-28T12:20:55.291Z,82.98
2018-11-28T12:23:23.651Z,83.36
2018-11-28T12:25:51.773Z,83.83
2018-11-28T12:28:19.864Z,83.39
2018-11-28T12:30:47.913Z,83.83
2018-11-28T12:33:15.967Z,83.46
2018-11-28T12:35:44.023Z,83.40
2018-11-28T12:38:12.143Z,82.99
2018-11-28T12:40:40.219Z,83.04
2018-11-28T12:43:09.287Z,83.17
2018-11-28T12:45:39.443Z,83.65
2018-11-28T12:48:07.516Z,83.07
2018-11-28T12:50:35.578Z,83.57
2018-11-28T12:53:03.755Z,83.56
2018-11-28T12:55:33.573Z,83.54
2018-11-28T12:58:01.658Z,84.16
2018-11-28T13:00:31.238Z,84.32
2018-11-28T13:02:59.302Z,84.48
2018-11-28T13:05:27.567Z,83.96
2018-11-28T13:07:55.861Z,83.83
2018-11-28T13:10:29.486Z,83.87
2018-11-28T13:12:57.585Z,84.82
2018-11-28T13:15:26.385Z,84.89
2018-11-28T13:17:54.448Z,84.39
2018-11-28T13:20:22.647Z,84.46
2018-11-28T13:22:51.845Z,84.87
2018-11-28T13:25:21.349Z,84.50
2018-11-28T13:27:49.426Z,85.01
2018-11-28T13:30:20.253Z,84.75
2018-11-28T13:32:48.963Z,84.52
2018-11-28T13:35:19.870Z,84.55
2018-11-28T13:37:49.822Z,85.06
2018-11-28T13:40:18.582Z,85.11
2018-11-28T13:42:46.661Z,85.71
2018-11-28T13:45:17.817Z,84.84
2018-11-28T13:47:47.407Z,84.68
2018-11-28T13:50:15.481Z,84.74
2018-11-28T13:52:43.587Z,85.25
2018-11-28T13:56:58.430Z,85.20
2018-11-28T13:58:47.142Z,85.06
2018-11-28T14:01:15.398Z,85.41
2018-11-28T14:03:44.018Z,85.61
2018-11-28T14:06:12.113Z,85.69
2018-11-28T14:08:40.489Z,84.85
2018-11-28T14:11:08.633Z,84.75
2018-11-28T14:13:36.849Z,85.17
2018-11-28T14:16:05.274Z,85.31
2018-11-28T14:18:33.362Z,85.22
2018-11-28T14:21:01.458Z,85.28
2018-11-28T14:23:29.593Z,84.54
2018-11-28T14:25:57.651Z,85.00
2018-11-28T14:28:25.767Z,85.62
2018-11-28T14:30:53.856Z,85.71
2018-11-28T14:33:21.954Z,85.16
2018-11-28T14:35:51.116Z,86.03
2018-11-28T14:38:19.670Z,85.68
2018-11-28T14:40:47.742Z,85.54
2018-11-28T14:43:16.000Z,85.86
2018-11-28T14:45:44.101Z,86.04
2018-11-28T14:48:13.026Z,86.33
2018-11-28T14:50:41.105Z,86.10
2018-11-28T14:53:09.245Z,86.02
2018-11-28T14:55:38.924Z,86.49
2018-11-28T14:58:08.694Z,86.36
2018-11-28T15:00:36.833Z,86.58
2018-11-28T15:03:22.958Z,86.62
2018-11-28T15:06:00.353Z,86.24
2018-11-28T15:08:29.011Z,86.06
2018-11-28T15:10:59.389Z,87.11
2018-11-28T15:13:27.490Z,87.13
2018-11-28T15:15:55.541Z,86.63
2018-11-28T15:18:23.593Z,86.85
2018-11-28T15:20:51.665Z,86.93
2018-11-28T15:23:19.714Z,86.69
2018-11-28T15:25:47.769Z,87.41
2018-11-28T15:28:15.857Z,86.27
2018-11-28T15:30:43.967Z,86.90
2018-11-28T15:33:12.050Z,87.59
2018-11-28T15:35:40.359Z,87.69
2018-11-28T15:38:08.808Z,87.27
2018-11-28T15:40:36.925Z,87.02
2018-11-28T15:43:04.967Z,87.02
2018-11-28T15:45:33.026Z,87.34
2018-11-28T15:48:01.159Z,87.11
2018-11-28T15:50:29.221Z,86.99
2018-11-28T15:52:57.262Z,86.85
2018-11-28T15:55:25.358Z,87.56
2018-11-28T15:57:53.437Z,87.39
2018-11-28T16:00:22.453Z,87.37
2018-11-28T16:02:50.392Z,86.85
2018-11-28T16:05:18.492Z,87.33
2018-11-28T16:07:46.565Z,86.59
2018-11-28T16:10:20.427Z,86.21
2018-11-28T16:12:48.882Z,86.45
2018-11-28T16:15:22.721Z,87.12
2018-11-28T16:17:50.781Z,86.61
2018-11-28T16:20:18.843Z,86.64
2018-11-28T16:22:46.901Z,86.94
2018-11-28T16:25:14.953Z,86.83
2018-11-28T16:27:43.072Z,86.36
2018-11-28T16:30:12.514Z,86.65
2018-11-28T16:32:40.854Z,87.01
2018-11-28T16:35:11.310Z,86.30
2018-11-28T16:37:39.488Z,86.42
2018-11-28T16:40:10.898Z,87.02
2018-11-28T16:42:39.006Z,86.71
2018-11-28T16:45:17.002Z,85.95
2018-11-28T16:47:45.098Z,85.69
2018-11-28T16:50:13.961Z,86.45
2018-11-28T16:52:42.074Z,86.18
2018-11-28T16:55:13.105Z,85.79
2018-11-28T16:57:42.194Z,86.03
2018-11-28T17:00:12.566Z,85.94
2018-11-28T17:02:40.640Z,86.25
2018-11-28T17:05:11.565Z,85.72
2018-11-28T17:07:39.850Z,86.07
2018-11-28T17:10:13.434Z,86.14
2018-11-28T17:12:41.494Z,85.34
2018-11-28T17:15:13.507Z,85.97
2018-11-28T17:17:41.585Z,85.99
2018-11-28T17:20:14.670Z,86.23
2018-11-28T17:22:43.015Z,85.65
2018-11-28T17:25:27.897Z,85.41
2018-11-28T17:27:55.948Z,85.75
2018-11-28T17:30:25.093Z,85.39
2018-11-28T17:32:53.145Z,85.13
2018-11-28T17:35:21.209Z,85.20
2018-11-28T17:37:49.367Z,85.50
2018-11-28T17:40:21.458Z,85.17
2018-11-28T17:42:50.686Z,85.45
2018-11-28T17:45:19.069Z,85.65
2018-11-28T17:47:47.142Z,85.47
2018-11-28T17:50:16.322Z,85.54
2018-11-28T17:52:48.209Z,85.42
2018-11-28T17:55:17.202Z,85.11
2018-11-28T17:57:45.249Z,84.75
2018-11-28T18:00:14.582Z,85.07
2018-11-28T18:02:42.635Z,85.12
2018-11-28T18:05:11.091Z,84.75
2018-11-28T18:07:39.143Z,84.64
2018-11-28T18:10:16.320Z,84.53
2018-11-28T18:12:55.921Z,84.51
2018-11-28T18:15:24.160Z,85.17
2018-11-28T18:17:53.517Z,84.68
2018-11-28T18:20:21.614Z,85.09
2018-11-28T18:22:49.701Z,84.69
2018-11-28T18:25:17.873Z,84.82
2018-11-28T18:27:45.940Z,84.98
2018-11-28T18:30:13.971Z,85.10
2018-11-28T18:32:42.018Z,84.63
2018-11-28T18:35:10.986Z,84.92
2018-11-28T18:37:39.035Z,84.00
2018-11-28T18:40:10.102Z,84.71
2018-11-28T18:42:38.297Z,84.68
2018-11-28T18:45:11.374Z,84.11
2018-11-28T18:47:40.138Z,84.22
2018-11-28T18:50:09.569Z,84.96
2018-11-28T18:52:37.660Z,85.12
2018-11-28T18:55:08.181Z,84.79
2018-11-28T18:57:36.291Z,84.63
2018-11-28T19:00:04.909Z,84.70
2018-11-28T19:02:32.961Z,85.41
2018-11-28T19:05:01.027Z,85.03
2018-11-28T19:07:29.117Z,84.86
2018-11-28T19:09:57.170Z,84.89
2018-11-28T19:12:25.229Z,85.38
2018-11-28T19:14:53.303Z,85.04
2018-11-28T19:17:21.378Z,84.81
2018-11-28T19:19:49.436Z,84.92
2018-11-28T19:22:17.502Z,84.83
2018-11-28T19:24:45.690Z,84.87
2018-11-28T19:27:13.774Z,84.76
2018-11-28T19:29:41.850Z,84.52
2018-11-28T19:32:10.018Z,84.61
2018-11-28T19:34:38.082Z,84.95
2018-11-28T19:37:06.394Z,84.90
2018-11-28T19:39:34.458Z,84.04
2018-11-28T19:42:02.568Z,84.64
2018-11-28T19:44:30.623Z,84.63
2018-11-28T19:46:58.681Z,83.96
2018-11-28T19:49:26.745Z,83.96
2018-11-28T19:51:54.853Z,83.97
2018-11-28T19:54:22.910Z,84.48
2018-11-28T19:56:50.979Z,84.14
2018-11-28T19:59:19.067Z,84.46
2018-11-28T20:01:47.137Z,84.75
2018-11-28T20:04:15.202Z,83.96
2018-11-28T20:06:43.304Z,84.11
2018-11-28T20:09:17.206Z,84.46
2018-11-28T20:11:45.384Z,84.36
2018-11-28T20:14:13.494Z,84.05
2018-11-28T20:16:41.682Z,84.57
2018-11-28T20:19:09.783Z,84.13
2018-11-28T20:21:37.841Z,84.24
2018-11-28T20:24:06.721Z,84.29
2018-11-28T20:26:34.794Z,84.36
2018-11-28T20:29:02.846Z,84.12
2018-11-28T20:31:30.910Z,84.44
2018-11-28T20:33:59.014Z,84.16
2018-11-28T20:36:27.092Z,84.07
2018-11-28T20:38:55.577Z,84.30
2018-11-28T20:41:23.630Z,84.15
2018-11-28T20:43:52.549Z,84.62
2018-11-28T20:46:19.784Z,84.22
2018-11-28T20:48:47.870Z,84.53
2018-11-28T20:51:15.948Z,83.65
2018-11-28T20:53:44.882Z,84.00
2018-11-28T20:56:12.972Z,83.96
2018-11-28T20:58:41.044Z,84.37
2018-11-28T21:01:09.098Z,83.67
2018-11-28T21:03:37.191Z,83.77
2018-11-28T21:06:05.891Z,83.90
2018-11-28T21:08:33.957Z,83.99
2018-11-28T21:11:01.997Z,83.68
2018-11-28T21:13:30.038Z,84.07
2018-11-28T21:15:58.182Z,84.20
2018-11-28T21:18:26.272Z,83.83
2018-11-28T21:20:54.321Z,84.25
2018-11-28T21:23:22.356Z,83.99
2018-11-28T21:25:50.442Z,83.85
2018-11-28T21:28:18.566Z,84.02
2018-11-28T21:30:46.610Z,84.37
2018-11-28T21:33:15.266Z,84.73
2018-11-28T21:35:49.090Z,84.64
2018-11-28T21:38:17.137Z,84.44
2018-11-28T21:40:45.257Z,84.74
2018-11-28T21:43:13.344Z,85.10
2018-11-28T21:45:41.401Z,84.73
2018-11-28T21:48:09.484Z,85.53
2018-11-28T21:50:37.570Z,85.67
2018-11-28T21:53:07.326Z,85.62
2018-11-28T21:55:35.382Z,85.29
2018-11-28T21:58:03.457Z,85.52
2018-11-28T22:00:31.550Z,85.77
2018-11-28T22:02:59.647Z,85.71
2018-11-28T22:05:27.724Z,85.60
2018-11-28T22:07:55.782Z,85.77
2018-11-28T22:10:24.782Z,85.61
2018-11-28T22:12:53.379Z,86.29
2018-11-28T22:15:21.469Z,85.95
2018-11-28T22:17:50.564Z,85.52
2018-11-28T22:20:18.679Z,85.90
2018-11-28T22:22:46.736Z,86.17
2018-11-28T22:25:18.891Z,85.92
2018-11-28T22:27:46.949Z,85.65
2018-11-28T22:30:16.058Z,85.50
2018-11-28T22:32:44.174Z,86.09
2018-11-28T22:35:12.297Z,86.40
2018-11-28T22:37:40.338Z,85.70
2018-11-28T22:40:09.898Z,86.38
2018-11-28T22:42:37.993Z,86.15
2018-11-28T22:45:09.313Z,85.96
2018-11-28T22:47:37.378Z,85.85
2018-11-28T22:50:05.781Z,86.01
2018-11-28T22:52:33.854Z,85.60
2018-11-28T22:55:01.946Z,85.64
2018-11-28T22:57:30.008Z,85.25
2018-11-28T22:59:58.073Z,85.47
2018-11-28T23:02:58.619Z,85.31
2018-11-28T23:05:30.692Z,85.76
2018-11-28T23:07:59.801Z,85.30
2018-11-28T23:10:27.875Z,85.84
2018-11-28T23:12:55.967Z,84.97
2018-11-28T23:15:24.062Z,85.92
2018-11-28T23:17:55.162Z,85.57
2018-11-28T23:20:20.213Z,85.25
2018-11-28T23:22:48.289Z,85.60
2018-11-28T23:25:16.357Z,85.83
2018-11-28T23:27:44.407Z,85.48
2018-11-28T23:30:14.674Z,85.79
2018-11-28T23:32:42.769Z,85.76
2018-11-28T23:35:11.519Z,86.15
2018-11-28T23:37:40.493Z,85.45
2018-11-28T23:40:11.954Z,85.48
2018-11-28T23:42:40.014Z,85.54
2018-11-28T23:45:09.622Z,85.38
2018-11-28T23:47:37.701Z,85.72
2018-11-28T23:50:12.001Z,85.53
2018-11-28T23:52:40.085Z,85.51
2018-11-28T23:55:12.165Z,84.77
2018-11-28T23:57:40.237Z,85.55
